Главная страница
METAR-TAF:

METAR-TAF

Аэропорты :

Каструп

Копенгаген, Дания

широта: 55-37N, долгота: 012-39E, высота над уровнем моря: 5 м

Текущие метеонаблюдения

Эта сводка был подготовлена 11 минут назад, в 17:50 UTC
Ветер 6 Узел от южный-юго-западный
Температура 19°C
Влажность 64%
Давление 1013 hPa
Видимость 10 км и более

METAR: EKCH 251750Z AUTO 20006KT 9999 NCD 19/12 Q1013 NOSIG

Время: 20:01 (18:01 UTC)

Прогноз

Эта сводка был подготовлена 54 минут назад, в 17:07 UTC
Прогноз действительный с 25-го 18 UTC до 26-го 18 UTC
Ветер 10 Узел от южный
Видимость 10 км и более
Рассеянная облачность на высоте 3500 фута

TAF: EKCH 251707Z 2518/2618 18010KT 9999 BKN035

Метеонаблюдения и прогнозы для более 4000 аэропортов (сводки METAR и TAF).

Имеющиеся станции представлены на карте желтыми и красными точками.

Чтобы увидеть название станции, наведите на нее мышь.

Затем щелкните, чтобы увидеть метеонаблюдения и метеопрогнозы.

Управление картой: чтобы увеличить масштаб, щелкните зеленые кнопки с черным крестиком; чтобы уменьшить масштаб, щелкните зеленую кнопку с тире; для просмотра соседних карт щелкайте зеленые стрелки.


METAR-TAF: